createdAt,value
2022-12-13T00:01:47.656Z,100.00
2022-12-13T00:04:16.378Z,100.00
2022-12-13T00:06:46.377Z,100.00
2022-12-13T00:09:15.482Z,100.00
2022-12-13T00:11:43.782Z,100.00
2022-12-13T00:14:14.158Z,100.00
2022-12-13T00:16:42.843Z,100.00
2022-12-13T00:19:11.024Z,100.00
2022-12-13T00:21:39.257Z,100.00
2022-12-13T00:24:09.112Z,100.00
2022-12-13T00:26:37.735Z,100.00
2022-12-13T00:29:08.577Z,100.00
2022-12-13T00:31:59.549Z,100.00
2022-12-13T00:34:25.815Z,100.00
2022-12-13T00:36:55.012Z,100.00
2022-12-13T00:39:24.549Z,100.00
2022-12-13T00:41:52.734Z,100.00
2022-12-13T00:44:21.528Z,100.00
2022-12-13T00:46:51.838Z,100.00
2022-12-13T00:49:20.558Z,100.00
2022-12-13T00:51:49.798Z,100.00
2022-12-13T00:54:18.402Z,100.00
2022-12-13T00:56:47.915Z,100.00
2022-12-13T00:59:17.371Z,100.00
2022-12-13T01:01:46.257Z,100.00
2022-12-13T01:04:14.821Z,100.00
2022-12-13T01:06:45.203Z,100.00
2022-12-13T01:09:19.159Z,100.00
2022-12-13T01:11:49.986Z,100.00
2022-12-13T01:14:19.234Z,100.00
2022-12-13T01:16:47.454Z,100.00
2022-12-13T01:19:15.670Z,100.00
2022-12-13T01:21:43.803Z,100.00
2022-12-13T01:24:12.143Z,100.00
2022-12-13T01:26:40.298Z,100.00
2022-12-13T01:29:11.583Z,100.00
2022-12-13T01:31:42.067Z,100.00
2022-12-13T01:34:11.609Z,100.00
2022-12-13T01:36:40.724Z,100.00
2022-12-13T01:39:15.229Z,100.00
2022-12-13T01:41:45.409Z,100.00
2022-12-13T01:44:46.641Z,100.00
2022-12-13T01:47:19.682Z,100.00
2022-12-13T01:49:48.100Z,100.00
2022-12-13T01:52:17.710Z,100.00
2022-12-13T01:54:49.769Z,100.00
2022-12-13T01:57:21.073Z,100.00
2022-12-13T01:59:51.402Z,100.00
2022-12-13T02:02:21.617Z,100.00
2022-12-13T02:04:56.795Z,100.00
2022-12-13T02:07:32.590Z,100.00
2022-12-13T02:10:02.997Z,100.00
2022-12-13T02:12:35.844Z,100.00
2022-12-13T02:15:07.511Z,100.00
2022-12-13T02:17:52.339Z,100.00
2022-12-13T02:20:50.079Z,100.00
2022-12-13T02:23:56.308Z,100.00
2022-12-13T02:26:43.168Z,100.00
2022-12-13T02:29:35.031Z,100.00
2022-12-13T02:32:15.683Z,100.00
2022-12-13T02:34:48.519Z,100.00
2022-12-13T02:37:21.551Z,100.00
2022-12-13T02:39:55.515Z,100.00
2022-12-13T02:42:27.875Z,100.00
2022-12-13T02:45:01.546Z,100.00
2022-12-13T02:47:33.913Z,100.00
2022-12-13T02:50:08.019Z,100.00
2022-12-13T02:52:36.415Z,100.00
2022-12-13T02:55:08.944Z,100.00
2022-12-13T02:57:40.429Z,100.00
2022-12-13T03:00:12.016Z,100.00
2022-12-13T03:03:01.570Z,100.00
2022-12-13T03:05:55.360Z,100.00
2022-12-13T03:08:26.764Z,100.00
2022-12-13T03:11:04.826Z,100.00
2022-12-13T03:13:39.450Z,100.00
2022-12-13T03:16:22.751Z,100.00
2022-12-13T03:18:54.378Z,100.00
2022-12-13T03:21:22.690Z,100.00
2022-12-13T03:23:50.891Z,100.00
2022-12-13T03:26:22.515Z,100.00
2022-12-13T03:28:50.914Z,100.00
2022-12-13T03:31:19.107Z,100.00
2022-12-13T03:33:47.872Z,100.00
2022-12-13T03:36:19.032Z,100.00
2022-12-13T03:38:48.026Z,100.00
2022-12-13T03:41:20.306Z,99.08
2022-12-13T03:43:48.761Z,98.04
2022-12-13T03:46:17.147Z,99.68
2022-12-13T03:48:45.313Z,98.17
2022-12-13T03:51:13.436Z,97.55
2022-12-13T03:53:43.467Z,98.87
2022-12-13T03:56:11.609Z,100.00
2022-12-13T03:58:42.245Z,99.59
2022-12-13T04:01:12.792Z,99.83
2022-12-13T04:03:42.523Z,100.00
2022-12-13T04:06:11.639Z,98.78
2022-12-13T04:08:40.871Z,97.59
2022-12-13T04:11:27.844Z,99.84
2022-12-13T04:13:58.159Z,100.00
2022-12-13T04:16:27.244Z,100.00
2022-12-13T04:18:55.407Z,97.42
2022-12-13T04:21:23.845Z,97.85
2022-12-13T04:23:51.985Z,97.42
2022-12-13T04:26:21.694Z,97.79
2022-12-13T04:28:54.519Z,97.99
2022-12-13T04:31:23.365Z,95.25
2022-12-13T04:33:52.049Z,94.70
2022-12-13T04:36:32.553Z,93.52
2022-12-13T04:39:01.873Z,92.52
2022-12-13T04:41:34.441Z,93.97
2022-12-13T04:44:04.477Z,93.38
2022-12-13T04:46:32.912Z,95.39
2022-12-13T04:49:01.533Z,95.79
2022-12-13T04:51:29.778Z,95.44
2022-12-13T04:53:58.050Z,94.98
2022-12-13T04:56:47.731Z,95.10
2022-12-13T04:59:16.353Z,96.32
2022-12-13T05:01:44.530Z,95.60
2022-12-13T05:04:12.705Z,95.25
2022-12-13T05:06:40.886Z,95.10
2022-12-13T05:09:11.352Z,95.61
2022-12-13T05:11:45.960Z,96.24
2022-12-13T05:14:23.086Z,96.73
2022-12-13T05:16:52.155Z,97.37
2022-12-13T05:19:20.672Z,97.67
2022-12-13T05:21:49.998Z,98.43
2022-12-13T05:24:18.460Z,98.43
2022-12-13T05:26:47.427Z,98.64
2022-12-13T05:29:16.959Z,99.26
2022-12-13T05:31:45.528Z,100.00
2022-12-13T05:34:13.598Z,98.99
2022-12-13T05:36:41.846Z,98.07
2022-12-13T05:39:28.526Z,95.07
2022-12-13T05:42:01.173Z,93.26
2022-12-13T05:44:33.207Z,91.40
2022-12-13T05:47:03.012Z,89.59
2022-12-13T05:49:31.419Z,88.86
2022-12-13T05:51:59.547Z,88.75
2022-12-13T05:54:28.003Z,89.69
2022-12-13T05:56:56.551Z,89.00
2022-12-13T05:59:24.704Z,87.99
2022-12-13T06:01:54.488Z,88.08
2022-12-13T06:04:23.655Z,88.90
2022-12-13T06:06:52.236Z,90.24
2022-12-13T06:09:20.601Z,89.27
2022-12-13T06:11:48.930Z,89.82
2022-12-13T06:14:22.317Z,89.13
2022-12-13T06:16:54.035Z,87.56
2022-12-13T06:19:22.389Z,85.16
2022-12-13T06:21:50.620Z,82.67
2022-12-13T06:24:20.937Z,80.88
2022-12-13T06:26:49.568Z,80.36
2022-12-13T06:29:24.143Z,80.85
2022-12-13T06:32:01.304Z,80.40
2022-12-13T06:34:32.145Z,79.86
2022-12-13T06:37:00.752Z,79.38
2022-12-13T06:39:32.535Z,78.63
2022-12-13T06:42:01.767Z,77.76
2022-12-13T06:44:29.887Z,77.51
2022-12-13T06:47:11.755Z,78.70
2022-12-13T06:49:41.856Z,76.96
2022-12-13T06:52:11.922Z,77.03
2022-12-13T06:54:40.175Z,77.10
2022-12-13T06:57:08.357Z,76.34
2022-12-13T06:59:36.672Z,76.25
2022-12-13T07:02:06.216Z,76.13
2022-12-13T07:04:46.302Z,77.60
2022-12-13T07:07:14.422Z,77.60
2022-12-13T07:09:42.920Z,77.12
2022-12-13T07:12:11.492Z,75.36
2022-12-13T07:14:40.728Z,73.45
2022-12-13T07:17:10.957Z,72.88
2022-12-13T07:19:39.785Z,73.94
2022-12-13T07:22:08.007Z,72.36
2022-12-13T07:24:36.524Z,72.84
2022-12-13T07:27:05.111Z,72.61
2022-12-13T07:29:33.500Z,72.73
2022-12-13T07:32:02.251Z,73.01
2022-12-13T07:34:31.995Z,73.92
2022-12-13T07:37:00.295Z,73.65
2022-12-13T07:39:28.592Z,72.56
2022-12-13T07:41:57.270Z,73.19
2022-12-13T07:44:25.970Z,73.91
2022-12-13T07:46:54.252Z,74.16
2022-12-13T07:49:22.401Z,74.58
2022-12-13T07:51:51.899Z,73.64
2022-12-13T07:54:20.138Z,74.87
2022-12-13T07:56:48.237Z,75.35
2022-12-13T07:59:16.540Z,75.67
2022-12-13T08:01:57.175Z,75.24
2022-12-13T08:04:30.060Z,74.65
2022-12-13T08:07:10.086Z,75.04
2022-12-13T08:09:38.464Z,75.21
2022-12-13T08:12:06.874Z,73.11
2022-12-13T08:14:35.170Z,72.04
2022-12-13T08:17:03.297Z,70.67
2022-12-13T08:19:31.369Z,71.64
2022-12-13T08:22:01.676Z,69.73
2022-12-13T08:24:32.525Z,69.15
2022-12-13T08:27:03.485Z,70.39
2022-12-13T08:29:34.180Z,69.30
2022-12-13T08:32:05.013Z,67.91
2022-12-13T08:34:33.264Z,67.18
2022-12-13T08:37:03.612Z,66.28
2022-12-13T08:39:35.922Z,66.10
2022-12-13T08:42:16.782Z,65.08
2022-12-13T08:44:45.710Z,67.18
2022-12-13T08:47:24.001Z,69.01
2022-12-13T08:49:54.546Z,65.92
2022-12-13T08:52:23.974Z,67.31
2022-12-13T08:54:54.153Z,66.22
2022-12-13T08:57:22.241Z,67.06
2022-12-13T08:59:50.348Z,67.75
2022-12-13T09:02:18.644Z,65.90
2022-12-13T09:04:46.884Z,67.07
2022-12-13T09:07:15.019Z,67.19
2022-12-13T09:09:43.099Z,67.50
2022-12-13T09:12:29.917Z,66.66
2022-12-13T09:15:01.280Z,65.38
2022-12-13T09:17:33.452Z,66.48
2022-12-13T09:20:10.013Z,65.43
2022-12-13T09:23:01.883Z,65.58
2022-12-13T09:25:36.672Z,66.69
2022-12-13T09:28:09.690Z,63.58
2022-12-13T09:30:38.436Z,62.79
2022-12-13T09:33:18.091Z,63.55
2022-12-13T09:35:55.117Z,61.85
2022-12-13T09:38:23.304Z,62.83
2022-12-13T09:40:59.025Z,62.38
2022-12-13T09:43:42.970Z,62.04
2022-12-13T09:46:34.464Z,63.77
2022-12-13T09:49:23.129Z,63.02
2022-12-13T09:52:10.987Z,63.19
2022-12-13T09:54:48.337Z,63.50
2022-12-13T09:57:32.743Z,62.12
2022-12-13T10:00:07.039Z,63.44
2022-12-13T10:02:43.716Z,62.73
2022-12-13T10:05:21.854Z,63.17
2022-12-13T10:07:53.792Z,63.73
2022-12-13T10:10:22.154Z,62.20
2022-12-13T10:12:57.363Z,62.35
2022-12-13T10:15:29.085Z,60.60
2022-12-13T10:17:57.767Z,61.27
2022-12-13T10:20:29.393Z,61.41
2022-12-13T10:25:50.945Z,60.23
2022-12-13T10:28:25.823Z,58.34
2022-12-13T10:30:56.202Z,58.38
2022-12-13T10:33:27.510Z,58.13
2022-12-13T10:36:32.195Z,57.33
2022-12-13T10:39:00.362Z,57.68
2022-12-13T10:41:39.036Z,57.24
2022-12-13T10:44:25.618Z,57.31
2022-12-13T10:47:16.880Z,57.67
2022-12-13T10:49:59.116Z,59.31
2022-12-13T10:52:32.037Z,56.93
2022-12-13T10:55:04.621Z,57.54
2022-12-13T10:57:53.902Z,56.25
2022-12-13T11:00:42.126Z,56.05
2022-12-13T11:03:16.225Z,54.56
2022-12-13T11:05:46.817Z,54.57
2022-12-13T11:08:23.675Z,53.42
2022-12-13T11:10:59.561Z,54.14
2022-12-13T11:13:37.059Z,54.88
2022-12-13T11:16:06.754Z,54.07
2022-12-13T11:18:40.570Z,54.23
2022-12-13T11:21:08.748Z,55.16
2022-12-13T11:23:40.967Z,55.88
2022-12-13T11:26:12.439Z,56.65
2022-12-13T11:29:02.609Z,57.37
2022-12-13T11:31:43.814Z,54.99
2022-12-13T11:34:24.886Z,54.60
2022-12-13T11:37:00.282Z,56.83
2022-12-13T11:39:33.252Z,55.71
2022-12-13T11:42:11.073Z,54.40
2022-12-13T11:44:48.264Z,55.27
2022-12-13T11:47:24.288Z,57.58
2022-12-13T11:49:54.631Z,55.86
2022-12-13T11:52:28.535Z,56.23
2022-12-13T11:55:01.127Z,55.32
2022-12-13T11:57:40.872Z,54.45
2022-12-13T12:00:33.691Z,55.70
2022-12-13T12:03:18.046Z,55.97
2022-12-13T12:05:55.928Z,54.06
2022-12-13T12:08:34.888Z,54.71
2022-12-13T12:11:10.273Z,53.63
2022-12-13T12:13:51.456Z,56.37
2022-12-13T12:16:30.351Z,53.65
2022-12-13T12:19:01.497Z,54.37
2022-12-13T12:24:37.962Z,52.20
2022-12-13T12:27:23.827Z,52.62
2022-12-13T12:30:22.480Z,52.15
2022-12-13T12:33:04.229Z,51.98
2022-12-13T12:35:52.593Z,52.70
2022-12-13T12:38:51.568Z,52.75
2022-12-13T12:41:33.846Z,51.92
2022-12-13T12:44:07.194Z,51.33
2022-12-13T12:47:18.051Z,53.29
2022-12-13T12:50:03.926Z,51.95
2022-12-13T12:52:44.133Z,52.55
2022-12-13T12:55:21.187Z,52.52
2022-12-13T12:58:05.985Z,52.19
2022-12-13T13:00:45.138Z,51.69
2022-12-13T13:03:23.059Z,52.11
2022-12-13T13:06:01.661Z,53.20
2022-12-13T13:08:36.120Z,54.46
2022-12-13T13:11:25.139Z,53.22
2022-12-13T13:14:03.905Z,53.45
2022-12-13T13:16:35.443Z,54.71
2022-12-13T13:19:04.390Z,55.04
2022-12-13T13:21:44.006Z,55.70
2022-12-13T13:24:26.432Z,55.80
2022-12-13T13:26:57.769Z,56.60
2022-12-13T13:29:37.391Z,57.63
2022-12-13T13:32:31.918Z,59.01
2022-12-13T13:35:53.788Z,60.87
2022-12-13T13:38:45.020Z,61.19
2022-12-13T13:41:52.294Z,60.39
2022-12-13T13:45:08.994Z,60.25
2022-12-13T13:47:42.248Z,60.64
2022-12-13T13:50:55.697Z,60.74
2022-12-13T13:53:57.153Z,60.61
2022-12-13T13:56:50.159Z,60.31
2022-12-13T14:00:12.097Z,60.22
2022-12-13T14:03:32.665Z,60.08
2022-12-13T14:06:35.724Z,61.73
2022-12-13T14:09:28.301Z,62.28
2022-12-13T14:12:29.240Z,63.20
2022-12-13T14:15:51.107Z,64.29
2022-12-13T14:19:11.355Z,64.58
2022-12-13T14:21:55.654Z,64.57
2022-12-13T14:24:39.956Z,65.98
2022-12-13T14:27:20.778Z,66.20
2022-12-13T14:29:57.940Z,66.49
2022-12-13T14:32:29.584Z,67.34
2022-12-13T14:34:58.750Z,66.96
2022-12-13T14:37:30.668Z,66.21
2022-12-13T14:40:01.152Z,65.31
2022-12-13T14:42:33.905Z,66.16
2022-12-13T14:45:16.100Z,66.34
2022-12-13T14:47:45.139Z,67.80
2022-12-13T14:50:18.026Z,69.81
2022-12-13T14:52:47.491Z,70.83
2022-12-13T14:55:26.773Z,71.92
2022-12-13T14:57:56.289Z,73.28
2022-12-13T15:00:29.076Z,72.61
2022-12-13T15:03:00.172Z,73.00
2022-12-13T15:05:30.103Z,73.81
2022-12-13T15:07:59.065Z,76.58
2022-12-13T15:10:38.931Z,75.83
2022-12-13T15:13:07.461Z,76.54
2022-12-13T15:15:38.051Z,78.63
2022-12-13T15:18:26.127Z,78.41
2022-12-13T15:20:56.892Z,78.31
2022-12-13T15:23:28.964Z,77.79
2022-12-13T15:26:02.200Z,78.48
2022-12-13T15:28:34.611Z,79.72
2022-12-13T15:31:03.704Z,81.06
2022-12-13T15:33:36.732Z,81.72
2022-12-13T15:36:10.728Z,82.07
2022-12-13T15:38:45.310Z,81.58
2022-12-13T15:41:20.105Z,81.37
2022-12-13T15:43:52.665Z,81.85
2022-12-13T15:46:27.037Z,83.07
2022-12-13T15:48:57.374Z,83.02
2022-12-13T15:51:30.347Z,83.72
2022-12-13T15:54:05.349Z,84.68
2022-12-13T15:56:36.618Z,84.51
2022-12-13T15:59:06.284Z,86.30
2022-12-13T16:01:36.903Z,85.73
2022-12-13T16:04:06.390Z,86.11
2022-12-13T16:06:35.463Z,85.93
2022-12-13T16:09:06.958Z,86.00
2022-12-13T16:11:40.748Z,85.02
2022-12-13T16:14:40.145Z,85.06
2022-12-13T16:17:25.817Z,86.91
2022-12-13T16:19:55.185Z,87.89
2022-12-13T16:22:24.222Z,86.71
2022-12-13T16:24:56.540Z,84.64
2022-12-13T16:27:26.099Z,84.86
2022-12-13T16:29:54.237Z,84.28
2022-12-13T16:32:23.586Z,83.75
2022-12-13T16:34:51.752Z,83.61
2022-12-13T16:37:26.527Z,83.80
2022-12-13T16:39:55.574Z,83.67
2022-12-13T16:42:26.911Z,83.32
2022-12-13T16:45:32.363Z,83.23
2022-12-13T16:47:48.864Z,82.96
2022-12-13T16:50:20.076Z,82.73
2022-12-13T16:52:48.357Z,83.39
2022-12-13T16:55:16.732Z,84.68
2022-12-13T16:57:55.496Z,84.23
2022-12-13T17:00:23.829Z,83.70
2022-12-13T17:02:51.979Z,85.06
2022-12-13T17:05:20.853Z,85.03
2022-12-13T17:07:49.575Z,84.53
2022-12-13T17:10:18.797Z,83.94
2022-12-13T17:12:48.450Z,84.06
2022-12-13T17:15:16.698Z,85.10
2022-12-13T17:17:46.768Z,85.69
2022-12-13T17:20:16.776Z,85.38
2022-12-13T17:22:46.373Z,85.03
2022-12-13T17:25:15.085Z,84.06
2022-12-13T17:27:43.503Z,83.06
2022-12-13T17:30:17.522Z,82.57
2022-12-13T17:32:46.226Z,83.26
2022-12-13T17:35:18.063Z,83.66
2022-12-13T17:37:46.930Z,83.51
2022-12-13T17:40:15.087Z,82.73
2022-12-13T17:42:43.312Z,82.01
2022-12-13T17:45:13.519Z,81.54
2022-12-13T17:47:41.726Z,80.51
2022-12-13T17:50:10.722Z,80.29
2022-12-13T17:52:40.098Z,79.20
2022-12-13T17:55:14.919Z,79.17
2022-12-13T17:57:46.802Z,79.47
2022-12-13T18:00:17.613Z,78.64
2022-12-13T18:02:55.564Z,76.35
2022-12-13T18:05:26.394Z,75.28
2022-12-13T18:07:54.558Z,74.56
2022-12-13T18:10:29.290Z,74.86
2022-12-13T18:12:58.421Z,74.48
2022-12-13T18:15:28.078Z,74.21
2022-12-13T18:18:13.697Z,74.12
2022-12-13T18:20:42.034Z,73.41
2022-12-13T18:23:10.194Z,72.30
2022-12-13T18:25:38.583Z,72.31
2022-12-13T18:28:10.238Z,72.47
2022-12-13T18:30:39.984Z,72.63
2022-12-13T18:33:08.115Z,72.35
2022-12-13T18:35:36.197Z,72.09
2022-12-13T18:38:08.863Z,71.63
2022-12-13T18:40:37.558Z,70.98
2022-12-13T18:43:05.757Z,70.45
2022-12-13T18:45:33.938Z,70.20
2022-12-13T18:48:03.607Z,70.31
2022-12-13T18:50:31.707Z,69.83
2022-12-13T18:52:59.835Z,70.02
2022-12-13T18:55:28.331Z,70.24
2022-12-13T18:57:56.532Z,69.05
2022-12-13T19:00:27.000Z,69.05
2022-12-13T19:02:55.528Z,69.21
2022-12-13T19:05:25.191Z,69.33
2022-12-13T19:07:53.429Z,69.46
2022-12-13T19:10:21.602Z,69.85
2022-12-13T19:12:49.710Z,70.17
2022-12-13T19:15:18.995Z,70.71
2022-12-13T19:17:48.098Z,70.96
2022-12-13T19:20:16.750Z,71.44
2022-12-13T19:22:46.991Z,71.30
2022-12-13T19:25:17.027Z,74.14
2022-12-13T19:27:47.469Z,74.54
2022-12-13T19:30:17.801Z,75.48
2022-12-13T19:32:48.370Z,76.81
2022-12-13T19:35:16.869Z,77.00
2022-12-13T19:37:46.520Z,78.73
2022-12-13T19:40:14.824Z,75.44
2022-12-13T19:42:43.052Z,74.17
2022-12-13T19:45:11.316Z,73.96
2022-12-13T19:47:39.587Z,73.55
2022-12-13T19:50:08.393Z,74.10
2022-12-13T19:52:36.510Z,73.98
2022-12-13T19:55:06.846Z,73.92
2022-12-13T19:57:35.084Z,74.27
2022-12-13T20:00:04.262Z,74.02
2022-12-13T20:02:32.425Z,74.15
2022-12-13T20:05:00.562Z,73.09
2022-12-13T20:07:28.925Z,73.19
2022-12-13T20:09:56.971Z,72.24
2022-12-13T20:12:26.473Z,72.72
2022-12-13T20:14:55.603Z,73.36
2022-12-13T20:17:23.791Z,74.01
2022-12-13T20:19:51.929Z,74.18
2022-12-13T20:22:20.271Z,74.33
2022-12-13T20:24:48.389Z,74.23
2022-12-13T20:27:16.510Z,74.11
2022-12-13T20:29:48.374Z,74.05
2022-12-13T20:32:17.889Z,73.90
2022-12-13T20:34:49.119Z,73.97
2022-12-13T20:37:19.798Z,74.12
2022-12-13T20:39:48.054Z,74.19
2022-12-13T20:42:16.487Z,73.90
2022-12-13T20:44:46.094Z,74.06
2022-12-13T20:47:14.298Z,74.12
2022-12-13T20:49:42.828Z,74.31
2022-12-13T20:52:17.057Z,74.67
2022-12-13T20:54:45.592Z,75.06
2022-12-13T20:57:13.747Z,75.24
2022-12-13T20:59:42.311Z,75.61
2022-12-13T21:02:13.655Z,75.70
2022-12-13T21:04:43.734Z,75.50
2022-12-13T21:07:11.984Z,75.45
2022-12-13T21:09:40.279Z,75.43
2022-12-13T21:12:08.550Z,75.64
2022-12-13T21:14:37.005Z,75.67
2022-12-13T21:17:09.701Z,75.87
2022-12-13T21:19:40.651Z,75.89
2022-12-13T21:22:08.868Z,76.19
2022-12-13T21:24:37.534Z,76.27
2022-12-13T21:27:06.036Z,75.69
2022-12-13T21:29:34.165Z,76.02
2022-12-13T21:32:02.525Z,76.05
2022-12-13T21:34:30.683Z,75.92
2022-12-13T21:37:02.790Z,75.93
2022-12-13T21:39:36.787Z,75.95
2022-12-13T21:42:06.114Z,75.50
2022-12-13T21:44:34.467Z,75.57
2022-12-13T21:47:18.142Z,75.62
2022-12-13T21:49:48.597Z,75.63
2022-12-13T21:52:18.850Z,75.48
2022-12-13T21:54:47.113Z,75.46
2022-12-13T21:57:32.707Z,75.61
2022-12-13T22:00:01.170Z,75.66
2022-12-13T22:02:29.373Z,75.58
2022-12-13T22:04:58.972Z,75.57
2022-12-13T22:07:30.096Z,75.93
2022-12-13T22:09:59.383Z,76.00
2022-12-13T22:12:29.842Z,76.06
2022-12-13T22:14:58.154Z,76.18
2022-12-13T22:17:34.673Z,75.52
2022-12-13T22:20:04.071Z,74.71
2022-12-13T22:22:34.674Z,74.32
2022-12-13T22:25:05.777Z,73.70
2022-12-13T22:27:33.886Z,73.35
2022-12-13T22:30:01.928Z,73.10
2022-12-13T22:32:34.019Z,72.68
2022-12-13T22:35:02.207Z,72.60
2022-12-13T22:37:30.399Z,72.71
2022-12-13T22:40:00.149Z,73.08
2022-12-13T22:42:28.425Z,73.94
2022-12-13T22:44:56.765Z,74.29
2022-12-13T22:47:27.488Z,74.49
2022-12-13T22:49:58.757Z,74.62
2022-12-13T22:52:33.433Z,74.49
2022-12-13T22:55:04.704Z,75.09
2022-12-13T22:57:33.151Z,75.56
2022-12-13T23:00:01.339Z,76.13
2022-12-13T23:02:29.564Z,76.13
2022-12-13T23:04:57.689Z,76.45
2022-12-13T23:07:27.795Z,76.88
2022-12-13T23:09:56.305Z,76.16
2022-12-13T23:12:43.307Z,76.21
2022-12-13T23:15:12.340Z,76.35
2022-12-13T23:17:40.580Z,76.08
2022-12-13T23:20:10.309Z,75.03
2022-12-13T23:22:38.729Z,74.55
2022-12-13T23:25:08.187Z,74.46
2022-12-13T23:27:38.114Z,74.58
2022-12-13T23:30:10.181Z,74.07
2022-12-13T23:32:38.451Z,73.51
2022-12-13T23:35:08.526Z,73.07
2022-12-13T23:37:36.769Z,72.58
2022-12-13T23:40:06.063Z,72.27
2022-12-13T23:42:34.585Z,72.33
2022-12-13T23:45:04.333Z,72.31
2022-12-13T23:47:32.631Z,71.73
2022-12-13T23:50:00.965Z,72.31
2022-12-13T23:52:29.347Z,72.41
2022-12-13T23:54:57.747Z,72.87
2022-12-13T23:57:26.193Z,73.57
2022-12-13T23:59:54.668Z,73.53
